<?xml version="1.0" encoding="UTF-8" standalone="no" ?>
<gpx xmlns="http://www.topografix.com/GPX/1/1" xmlns:xsi="http://www.w3.org/2001/XMLSchema-instance" xsi:schemaLocation="http://www.topografix.com/GPX/1/1 http://www.topografix.com/GPX/1/1/gpx.xsd" version="1.1" creator="VisuGPX - https://www.visugpx.com">
  <metadata>
    <name>La Chapelle-de-Guinchay Cyclisme</name>
    <desc><![CDATA[Col de Saint-Bonnet au départ de Salles]]></desc>
  </metadata>
  <trk>
    <name><![CDATA[La Chapelle-de-Guinchay Cyclisme]]></name>
    <trkseg>
      <trkpt lat="46.04375" lon="4.6376">
        <ele>273</ele>
        <time>2020-08-06T08:10:46.000Z</time>
      </trkpt>
      <trkpt lat="46.04358" lon="4.63776">
        <ele>273.60000610352</ele>
        <time>2020-08-06T08:10:50.000Z</time>
      </trkpt>
      <trkpt lat="46.0435" lon="4.63783">
        <ele>274</ele>
        <time>2020-08-06T08:10:52.000Z</time>
      </trkpt>
      <trkpt lat="46.04346" lon="4.63787">
        <ele>274.20001220703</ele>
        <time>2020-08-06T08:10:53.000Z</time>
      </trkpt>
      <trkpt lat="46.04334" lon="4.63797">
        <ele>275.60000610352</ele>
        <time>2020-08-06T08:10:56.000Z</time>
      </trkpt>
      <trkpt lat="46.04318" lon="4.63812">
        <ele>276.79998779297</ele>
        <time>2020-08-06T08:11:00.000Z</time>
      </trkpt>
      <trkpt lat="46.04314" lon="4.63815">
        <ele>277</ele>
        <time>2020-08-06T08:11:01.000Z</time>
      </trkpt>
      <trkpt lat="46.0431" lon="4.63818">
        <ele>277.20001220703</ele>
        <time>2020-08-06T08:11:02.000Z</time>
      </trkpt>
      <trkpt lat="46.04303" lon="4.63825">
        <ele>277.79998779297</ele>
        <time>2020-08-06T08:11:04.000Z</time>
      </trkpt>
      <trkpt lat="46.04295" lon="4.63831">
        <ele>278.60000610352</ele>
        <time>2020-08-06T08:11:06.000Z</time>
      </trkpt>
      <trkpt lat="46.04292" lon="4.63834">
        <ele>279</ele>
        <time>2020-08-06T08:11:07.000Z</time>
      </trkpt>
      <trkpt lat="46.04278" lon="4.63847">
        <ele>280</ele>
        <time>2020-08-06T08:11:11.000Z</time>
      </trkpt>
      <trkpt lat="46.04267" lon="4.63857">
        <ele>280.20001220703</ele>
        <time>2020-08-06T08:11:14.000Z</time>
      </trkpt>
      <trkpt lat="46.04263" lon="4.6386">
        <ele>280.20001220703</ele>
        <time>2020-08-06T08:11:15.000Z</time>
      </trkpt>
      <trkpt lat="46.04256" lon="4.63866">
        <ele>280.39999389648</ele>
        <time>2020-08-06T08:11:17.000Z</time>
      </trkpt>
      <trkpt lat="46.04246" lon="4.63875">
        <ele>280.79998779297</ele>
        <time>2020-08-06T08:11:20.000Z</time>
      </trkpt>
      <trkpt lat="46.04231" lon="4.63887">
        <ele>281.60000610352</ele>
        <time>2020-08-06T08:11:24.000Z</time>
      </trkpt>
      <trkpt lat="46.04228" lon="4.6389">
        <ele>282</ele>
        <time>2020-08-06T08:11:25.000Z</time>
      </trkpt>
      <trkpt lat="46.04214" lon="4.63901">
        <ele>283.39999389648</ele>
        <time>2020-08-06T08:11:29.000Z</time>
      </trkpt>
      <trkpt lat="46.04204" lon="4.63908">
        <ele>284.39999389648</ele>
        <time>2020-08-06T08:11:32.000Z</time>
      </trkpt>
      <trkpt lat="46.04183" lon="4.63924">
        <ele>286</ele>
        <time>2020-08-06T08:11:39.000Z</time>
      </trkpt>
      <trkpt lat="46.04165" lon="4.63939">
        <ele>286.39999389648</ele>
        <time>2020-08-06T08:11:45.000Z</time>
      </trkpt>
      <trkpt lat="46.04152" lon="4.6395">
        <ele>286.79998779297</ele>
        <time>2020-08-06T08:11:49.000Z</time>
      </trkpt>
      <trkpt lat="46.04136" lon="4.63964">
        <ele>287.39999389648</ele>
        <time>2020-08-06T08:11:54.000Z</time>
      </trkpt>
      <trkpt lat="46.04113" lon="4.63984">
        <ele>289.20001220703</ele>
        <time>2020-08-06T08:12:01.000Z</time>
      </trkpt>
      <trkpt lat="46.04094" lon="4.63998">
        <ele>290.20001220703</ele>
        <time>2020-08-06T08:12:06.000Z</time>
      </trkpt>
      <trkpt lat="46.04087" lon="4.64006">
        <ele>290.39999389648</ele>
        <time>2020-08-06T08:12:08.000Z</time>
      </trkpt>
      <trkpt lat="46.04075" lon="4.64015">
        <ele>290.79998779297</ele>
        <time>2020-08-06T08:12:11.000Z</time>
      </trkpt>
      <trkpt lat="46.04065" lon="4.64025">
        <ele>291</ele>
        <time>2020-08-06T08:12:14.000Z</time>
      </trkpt>
      <trkpt lat="46.04054" lon="4.64034">
        <ele>291.20001220703</ele>
        <time>2020-08-06T08:12:17.000Z</time>
      </trkpt>
      <trkpt lat="46.04044" lon="4.64044">
        <ele>291.60000610352</ele>
        <time>2020-08-06T08:12:20.000Z</time>
      </trkpt>
      <trkpt lat="46.0404" lon="4.64047">
        <ele>291.79998779297</ele>
        <time>2020-08-06T08:12:21.000Z</time>
      </trkpt>
      <trkpt lat="46.0403" lon="4.64056">
        <ele>292.20001220703</ele>
        <time>2020-08-06T08:12:24.000Z</time>
      </trkpt>
      <trkpt lat="46.04021" lon="4.64065">
        <ele>292.39999389648</ele>
        <time>2020-08-06T08:12:27.000Z</time>
      </trkpt>
      <trkpt lat="46.04012" lon="4.64073">
        <ele>292.79998779297</ele>
        <time>2020-08-06T08:12:30.000Z</time>
      </trkpt>
      <trkpt lat="46.03999" lon="4.64084">
        <ele>293.39999389648</ele>
        <time>2020-08-06T08:12:34.000Z</time>
      </trkpt>
      <trkpt lat="46.03993" lon="4.64089">
        <ele>293.60000610352</ele>
        <time>2020-08-06T08:12:36.000Z</time>
      </trkpt>
      <trkpt lat="46.0399" lon="4.64092">
        <ele>293.60000610352</ele>
        <time>2020-08-06T08:12:37.000Z</time>
      </trkpt>
      <trkpt lat="46.03977" lon="4.64102">
        <ele>294.20001220703</ele>
        <time>2020-08-06T08:12:41.000Z</time>
      </trkpt>
      <trkpt lat="46.03971" lon="4.64107">
        <ele>294.60000610352</ele>
        <time>2020-08-06T08:12:43.000Z</time>
      </trkpt>
      <trkpt lat="46.03966" lon="4.64112">
        <ele>295.20001220703</ele>
        <time>2020-08-06T08:12:45.000Z</time>
      </trkpt>
      <trkpt lat="46.03948" lon="4.64126">
        <ele>296.79998779297</ele>
        <time>2020-08-06T08:12:51.000Z</time>
      </trkpt>
      <trkpt lat="46.03946" lon="4.64128">
        <ele>297.20001220703</ele>
        <time>2020-08-06T08:12:52.000Z</time>
      </trkpt>
      <trkpt lat="46.03937" lon="4.64136">
        <ele>298</ele>
        <time>2020-08-06T08:12:55.000Z</time>
      </trkpt>
      <trkpt lat="46.03928" lon="4.64144">
        <ele>298.79998779297</ele>
        <time>2020-08-06T08:12:58.000Z</time>
      </trkpt>
      <trkpt lat="46.03919" lon="4.64151">
        <ele>299.60000610352</ele>
        <time>2020-08-06T08:13:01.000Z</time>
      </trkpt>
      <trkpt lat="46.03911" lon="4.64158">
        <ele>300</ele>
        <time>2020-08-06T08:13:04.000Z</time>
      </trkpt>
      <trkpt lat="46.03899" lon="4.64168">
        <ele>300.60000610352</ele>
        <time>2020-08-06T08:13:08.000Z</time>
      </trkpt>
      <trkpt lat="46.03896" lon="4.6417">
        <ele>300.79998779297</ele>
        <time>2020-08-06T08:13:09.000Z</time>
      </trkpt>
      <trkpt lat="46.03882" lon="4.64182">
        <ele>301.79998779297</ele>
        <time>2020-08-06T08:13:14.000Z</time>
      </trkpt>
      <trkpt lat="46.03874" lon="4.6419">
        <ele>302.39999389648</ele>
        <time>2020-08-06T08:13:17.000Z</time>
      </trkpt>
      <trkpt lat="46.03869" lon="4.64194">
        <ele>302.60000610352</ele>
        <time>2020-08-06T08:13:19.000Z</time>
      </trkpt>
      <trkpt lat="46.03853" lon="4.64209">
        <ele>303.79998779297</ele>
        <time>2020-08-06T08:13:25.000Z</time>
      </trkpt>
      <trkpt lat="46.03847" lon="4.64214">
        <ele>304.39999389648</ele>
        <time>2020-08-06T08:13:27.000Z</time>
      </trkpt>
      <trkpt lat="46.03842" lon="4.64218">
        <ele>304.79998779297</ele>
        <time>2020-08-06T08:13:29.000Z</time>
      </trkpt>
      <trkpt lat="46.0383" lon="4.6423">
        <ele>305.79998779297</ele>
        <time>2020-08-06T08:13:34.000Z</time>
      </trkpt>
      <trkpt lat="46.03812" lon="4.64254">
        <ele>307.20001220703</ele>
        <time>2020-08-06T08:13:42.000Z</time>
      </trkpt>
      <trkpt lat="46.03809" lon="4.64258">
        <ele>307.39999389648</ele>
        <time>2020-08-06T08:13:43.000Z</time>
      </trkpt>
      <trkpt lat="46.03794" lon="4.64282">
        <ele>308.79998779297</ele>
        <time>2020-08-06T08:13:50.000Z</time>
      </trkpt>
      <trkpt lat="46.03788" lon="4.64292">
        <ele>309.60000610352</ele>
        <time>2020-08-06T08:13:53.000Z</time>
      </trkpt>
      <trkpt lat="46.03786" lon="4.64296">
        <ele>309.79998779297</ele>
        <time>2020-08-06T08:13:54.000Z</time>
      </trkpt>
      <trkpt lat="46.03775" lon="4.64313">
        <ele>311.60000610352</ele>
        <time>2020-08-06T08:13:59.000Z</time>
      </trkpt>
      <trkpt lat="46.03773" lon="4.64316">
        <ele>312</ele>
        <time>2020-08-06T08:14:00.000Z</time>
      </trkpt>
      <trkpt lat="46.03768" lon="4.64325">
        <ele>312.79998779297</ele>
        <time>2020-08-06T08:14:03.000Z</time>
      </trkpt>
      <trkpt lat="46.0376" lon="4.64329">
        <ele>313.39999389648</ele>
        <time>2020-08-06T08:14:06.000Z</time>
      </trkpt>
      <trkpt lat="46.03757" lon="4.6432">
        <ele>313.79998779297</ele>
        <time>2020-08-06T08:14:09.000Z</time>
      </trkpt>
      <trkpt lat="46.03756" lon="4.64315">
        <ele>313.79998779297</ele>
        <time>2020-08-06T08:14:10.000Z</time>
      </trkpt>
      <trkpt lat="46.03755" lon="4.64306">
        <ele>313.60000610352</ele>
        <time>2020-08-06T08:14:12.000Z</time>
      </trkpt>
      <trkpt lat="46.03754" lon="4.64297">
        <ele>313.39999389648</ele>
        <time>2020-08-06T08:14:14.000Z</time>
      </trkpt>
      <trkpt lat="46.03754" lon="4.64292">
        <ele>313.20001220703</ele>
        <time>2020-08-06T08:14:15.000Z</time>
      </trkpt>
      <trkpt lat="46.0375" lon="4.64269">
        <ele>313.79998779297</ele>
        <time>2020-08-06T08:14:20.000Z</time>
      </trkpt>
      <trkpt lat="46.03748" lon="4.6425">
        <ele>314.39999389648</ele>
        <time>2020-08-06T08:14:24.000Z</time>
      </trkpt>
      <trkpt lat="46.03747" lon="4.64245">
        <ele>314.60000610352</ele>
        <time>2020-08-06T08:14:25.000Z</time>
      </trkpt>
      <trkpt lat="46.03746" lon="4.64235">
        <ele>315</ele>
        <time>2020-08-06T08:14:27.000Z</time>
      </trkpt>
      <trkpt lat="46.03743" lon="4.64211">
        <ele>315.79998779297</ele>
        <time>2020-08-06T08:14:32.000Z</time>
      </trkpt>
      <trkpt lat="46.03741" lon="4.64192">
        <ele>316.20001220703</ele>
        <time>2020-08-06T08:14:36.000Z</time>
      </trkpt>
      <trkpt lat="46.03738" lon="4.64174">
        <ele>316.79998779297</ele>
        <time>2020-08-06T08:14:40.000Z</time>
      </trkpt>
      <trkpt lat="46.03735" lon="4.6415">
        <ele>317.39999389648</ele>
        <time>2020-08-06T08:14:45.000Z</time>
      </trkpt>
      <trkpt lat="46.03734" lon="4.64141">
        <ele>317.79998779297</ele>
        <time>2020-08-06T08:14:47.000Z</time>
      </trkpt>
      <trkpt lat="46.03733" lon="4.64132">
        <ele>318</ele>
        <time>2020-08-06T08:14:49.000Z</time>
      </trkpt>
      <trkpt lat="46.03729" lon="4.64105">
        <ele>319.20001220703</ele>
        <time>2020-08-06T08:14:55.000Z</time>
      </trkpt>
      <trkpt lat="46.03728" lon="4.641">
        <ele>319.39999389648</ele>
        <time>2020-08-06T08:14:56.000Z</time>
      </trkpt>
      <trkpt lat="46.03726" lon="4.64091">
        <ele>320</ele>
        <time>2020-08-06T08:14:58.000Z</time>
      </trkpt>
      <trkpt lat="46.03723" lon="4.64073">
        <ele>321</ele>
        <time>2020-08-06T08:15:02.000Z</time>
      </trkpt>
      <trkpt lat="46.0372" lon="4.64054">
        <ele>322.39999389648</ele>
        <time>2020-08-06T08:15:06.000Z</time>
      </trkpt>
      <trkpt lat="46.03719" lon="4.6405">
        <ele>322.60000610352</ele>
        <time>2020-08-06T08:15:07.000Z</time>
      </trkpt>
      <trkpt lat="46.03717" lon="4.64036">
        <ele>323.60000610352</ele>
        <time>2020-08-06T08:15:10.000Z</time>
      </trkpt>
      <trkpt lat="46.03713" lon="4.64012">
        <ele>324.79998779297</ele>
        <time>2020-08-06T08:15:15.000Z</time>
      </trkpt>
      <trkpt lat="46.03712" lon="4.63998">
        <ele>325.60000610352</ele>
        <time>2020-08-06T08:15:18.000Z</time>
      </trkpt>
      <trkpt lat="46.03708" lon="4.6398">
        <ele>326.79998779297</ele>
        <time>2020-08-06T08:15:22.000Z</time>
      </trkpt>
      <trkpt lat="46.03704" lon="4.63957">
        <ele>328.20001220703</ele>
        <time>2020-08-06T08:15:27.000Z</time>
      </trkpt>
      <trkpt lat="46.03703" lon="4.63948">
        <ele>328.60000610352</ele>
        <time>2020-08-06T08:15:29.000Z</time>
      </trkpt>
      <trkpt lat="46.03701" lon="4.63934">
        <ele>329.20001220703</ele>
        <time>2020-08-06T08:15:32.000Z</time>
      </trkpt>
      <trkpt lat="46.03696" lon="4.63907">
        <ele>330.79998779297</ele>
        <time>2020-08-06T08:15:38.000Z</time>
      </trkpt>
      <trkpt lat="46.03692" lon="4.63883">
        <ele>332.20001220703</ele>
        <time>2020-08-06T08:15:43.000Z</time>
      </trkpt>
      <trkpt lat="46.0369" lon="4.6387">
        <ele>333.20001220703</ele>
        <time>2020-08-06T08:15:46.000Z</time>
      </trkpt>
      <trkpt lat="46.03685" lon="4.63846">
        <ele>336.39999389648</ele>
        <time>2020-08-06T08:15:51.000Z</time>
      </trkpt>
      <trkpt lat="46.03684" lon="4.63836">
        <ele>337.60000610352</ele>
        <time>2020-08-06T08:15:53.000Z</time>
      </trkpt>
      <trkpt lat="46.03682" lon="4.63822">
        <ele>339.39999389648</ele>
        <time>2020-08-06T08:15:56.000Z</time>
      </trkpt>
      <trkpt lat="46.03677" lon="4.63794">
        <ele>343.20001220703</ele>
        <time>2020-08-06T08:16:02.000Z</time>
      </trkpt>
      <trkpt lat="46.03676" lon="4.6379">
        <ele>343.79998779297</ele>
        <time>2020-08-06T08:16:03.000Z</time>
      </trkpt>
      <trkpt lat="46.03678" lon="4.63762">
        <ele>347</ele>
        <time>2020-08-06T08:16:09.000Z</time>
      </trkpt>
      <trkpt lat="46.03679" lon="4.63758">
        <ele>347.39999389648</ele>
        <time>2020-08-06T08:16:10.000Z</time>
      </trkpt>
      <trkpt lat="46.03689" lon="4.63744">
        <ele>347.79998779297</ele>
        <time>2020-08-06T08:16:14.000Z</time>
      </trkpt>
      <trkpt lat="46.03698" lon="4.63737">
        <ele>347.39999389648</ele>
        <time>2020-08-06T08:16:17.000Z</time>
      </trkpt>
      <trkpt lat="46.03711" lon="4.63727">
        <ele>346.60000610352</ele>
        <time>2020-08-06T08:16:22.000Z</time>
      </trkpt>
      <trkpt lat="46.03719" lon="4.63721">
        <ele>346.20001220703</ele>
        <time>2020-08-06T08:16:25.000Z</time>
      </trkpt>
      <trkpt lat="46.03727" lon="4.63712">
        <ele>345.79998779297</ele>
        <time>2020-08-06T08:16:28.000Z</time>
      </trkpt>
      <trkpt lat="46.03732" lon="4.63705">
        <ele>345.79998779297</ele>
        <time>2020-08-06T08:16:30.000Z</time>
      </trkpt>
      <trkpt lat="46.03738" lon="4.63688">
        <ele>345.39999389648</ele>
        <time>2020-08-06T08:16:34.000Z</time>
      </trkpt>
      <trkpt lat="46.03741" lon="4.63675">
        <ele>345.39999389648</ele>
        <time>2020-08-06T08:16:37.000Z</time>
      </trkpt>
      <trkpt lat="46.03742" lon="4.63666">
        <ele>345.39999389648</ele>
        <time>2020-08-06T08:16:39.000Z</time>
      </trkpt>
      <trkpt lat="46.03744" lon="4.63638">
        <ele>345.60000610352</ele>
        <time>2020-08-06T08:16:45.000Z</time>
      </trkpt>
      <trkpt lat="46.03744" lon="4.63634">
        <ele>345.79998779297</ele>
        <time>2020-08-06T08:16:46.000Z</time>
      </trkpt>
      <trkpt lat="46.03746" lon="4.63616">
        <ele>346</ele>
        <time>2020-08-06T08:16:50.000Z</time>
      </trkpt>
      <trkpt lat="46.03747" lon="4.63603">
        <ele>346.20001220703</ele>
        <time>2020-08-06T08:16:53.000Z</time>
      </trkpt>
      <trkpt lat="46.03748" lon="4.63584">
        <ele>346.79998779297</ele>
        <time>2020-08-06T08:16:57.000Z</time>
      </trkpt>
      <trkpt lat="46.03748" lon="4.63567">
        <ele>347.39999389648</ele>
        <time>2020-08-06T08:17:01.000Z</time>
      </trkpt>
      <trkpt lat="46.03748" lon="4.63535">
        <ele>347.79998779297</ele>
        <time>2020-08-06T08:17:08.000Z</time>
      </trkpt>
      <trkpt lat="46.03747" lon="4.63522">
        <ele>348.39999389648</ele>
        <time>2020-08-06T08:17:11.000Z</time>
      </trkpt>
      <trkpt lat="46.03747" lon="4.63518">
        <ele>348.60000610352</ele>
        <time>2020-08-06T08:17:12.000Z</time>
      </trkpt>
      <trkpt lat="46.03746" lon="4.63486">
        <ele>350</ele>
        <time>2020-08-06T08:17:19.000Z</time>
      </trkpt>
      <trkpt lat="46.03745" lon="4.63468">
        <ele>350.60000610352</ele>
        <time>2020-08-06T08:17:23.000Z</time>
      </trkpt>
      <trkpt lat="46.03744" lon="4.63435">
        <ele>351.79998779297</ele>
        <time>2020-08-06T08:17:30.000Z</time>
      </trkpt>
      <trkpt lat="46.03744" lon="4.63425">
        <ele>352.39999389648</ele>
        <time>2020-08-06T08:17:32.000Z</time>
      </trkpt>
      <trkpt lat="46.03743" lon="4.63407">
        <ele>353.39999389648</ele>
        <time>2020-08-06T08:17:36.000Z</time>
      </trkpt>
      <trkpt lat="46.03742" lon="4.63393">
        <ele>354.39999389648</ele>
        <time>2020-08-06T08:17:39.000Z</time>
      </trkpt>
      <trkpt lat="46.03742" lon="4.63389">
        <ele>354.60000610352</ele>
        <time>2020-08-06T08:17:40.000Z</time>
      </trkpt>
      <trkpt lat="46.03741" lon="4.63365">
        <ele>355.60000610352</ele>
        <time>2020-08-06T08:17:45.000Z</time>
      </trkpt>
      <trkpt lat="46.03741" lon="4.63361">
        <ele>356</ele>
        <time>2020-08-06T08:17:46.000Z</time>
      </trkpt>
      <trkpt lat="46.03741" lon="4.63329">
        <ele>357.60000610352</ele>
        <time>2020-08-06T08:17:53.000Z</time>
      </trkpt>
      <trkpt lat="46.0374" lon="4.63316">
        <ele>358.20001220703</ele>
        <time>2020-08-06T08:17:56.000Z</time>
      </trkpt>
      <trkpt lat="46.0374" lon="4.63311">
        <ele>358.39999389648</ele>
        <time>2020-08-06T08:17:57.000Z</time>
      </trkpt>
      <trkpt lat="46.03741" lon="4.63293">
        <ele>359</ele>
        <time>2020-08-06T08:18:01.000Z</time>
      </trkpt>
      <trkpt lat="46.03741" lon="4.63275">
        <ele>359.79998779297</ele>
        <time>2020-08-06T08:18:05.000Z</time>
      </trkpt>
      <trkpt lat="46.03742" lon="4.6327">
        <ele>360</ele>
        <time>2020-08-06T08:18:06.000Z</time>
      </trkpt>
      <trkpt lat="46.03744" lon="4.63248">
        <ele>361</ele>
        <time>2020-08-06T08:18:11.000Z</time>
      </trkpt>
      <trkpt lat="46.03745" lon="4.63239">
        <ele>361.20001220703</ele>
        <time>2020-08-06T08:18:13.000Z</time>
      </trkpt>
      <trkpt lat="46.03746" lon="4.63222">
        <ele>362</ele>
        <time>2020-08-06T08:18:17.000Z</time>
      </trkpt>
      <trkpt lat="46.03746" lon="4.63217">
        <ele>362.20001220703</ele>
        <time>2020-08-06T08:18:18.000Z</time>
      </trkpt>
      <trkpt lat="46.03749" lon="4.63196">
        <ele>362.79998779297</ele>
        <time>2020-08-06T08:18:23.000Z</time>
      </trkpt>
      <trkpt lat="46.0375" lon="4.63179">
        <ele>363.79998779297</ele>
        <time>2020-08-06T08:18:27.000Z</time>
      </trkpt>
      <trkpt lat="46.0375" lon="4.6317">
        <ele>364.39999389648</ele>
        <time>2020-08-06T08:18:29.000Z</time>
      </trkpt>
      <trkpt lat="46.0375" lon="4.63153">
        <ele>365.60000610352</ele>
        <time>2020-08-06T08:18:33.000Z</time>
      </trkpt>
      <trkpt lat="46.03749" lon="4.63132">
        <ele>367.39999389648</ele>
        <time>2020-08-06T08:18:38.000Z</time>
      </trkpt>
      <trkpt lat="46.03747" lon="4.63107">
        <ele>368.20001220703</ele>
        <time>2020-08-06T08:18:44.000Z</time>
      </trkpt>
      <trkpt lat="46.03746" lon="4.63091">
        <ele>368</ele>
        <time>2020-08-06T08:18:48.000Z</time>
      </trkpt>
      <trkpt lat="46.03745" lon="4.63079">
        <ele>368.20001220703</ele>
        <time>2020-08-06T08:18:51.000Z</time>
      </trkpt>
      <trkpt lat="46.03741" lon="4.63053">
        <ele>368.60000610352</ele>
        <time>2020-08-06T08:18:57.000Z</time>
      </trkpt>
      <trkpt lat="46.0374" lon="4.63049">
        <ele>368.79998779297</ele>
        <time>2020-08-06T08:18:58.000Z</time>
      </trkpt>
      <trkpt lat="46.03732" lon="4.63021">
        <ele>369.79998779297</ele>
        <time>2020-08-06T08:19:05.000Z</time>
      </trkpt>
      <trkpt lat="46.03724" lon="4.63003">
        <ele>370.79998779297</ele>
        <time>2020-08-06T08:19:10.000Z</time>
      </trkpt>
      <trkpt lat="46.0372" lon="4.62992">
        <ele>371.60000610352</ele>
        <time>2020-08-06T08:19:13.000Z</time>
      </trkpt>
      <trkpt lat="46.03717" lon="4.62985">
        <ele>372.20001220703</ele>
        <time>2020-08-06T08:19:15.000Z</time>
      </trkpt>
      <trkpt lat="46.03708" lon="4.62968">
        <ele>373.79998779297</ele>
        <time>2020-08-06T08:19:20.000Z</time>
      </trkpt>
      <trkpt lat="46.03707" lon="4.62965">
        <ele>374.20001220703</ele>
        <time>2020-08-06T08:19:21.000Z</time>
      </trkpt>
      <trkpt lat="46.03696" lon="4.62938">
        <ele>375.79998779297</ele>
        <time>2020-08-06T08:19:28.000Z</time>
      </trkpt>
      <trkpt lat="46.03686" lon="4.6291">
        <ele>376.60000610352</ele>
        <time>2020-08-06T08:19:35.000Z</time>
      </trkpt>
      <trkpt lat="46.03681" lon="4.62894">
        <ele>377</ele>
        <time>2020-08-06T08:19:39.000Z</time>
      </trkpt>
      <trkpt lat="46.03673" lon="4.62869">
        <ele>377.20001220703</ele>
        <time>2020-08-06T08:19:46.000Z</time>
      </trkpt>
      <trkpt lat="46.03667" lon="4.62845">
        <ele>379.39999389648</ele>
        <time>2020-08-06T08:19:52.000Z</time>
      </trkpt>
      <trkpt lat="46.03663" lon="4.62822">
        <ele>381</ele>
        <time>2020-08-06T08:19:57.000Z</time>
      </trkpt>
      <trkpt lat="46.03662" lon="4.62817">
        <ele>381.20001220703</ele>
        <time>2020-08-06T08:19:58.000Z</time>
      </trkpt>
      <trkpt lat="46.03662" lon="4.62802">
        <ele>381.39999389648</ele>
        <time>2020-08-06T08:20:01.000Z</time>
      </trkpt>
      <trkpt lat="46.03662" lon="4.62788">
        <ele>382.20001220703</ele>
        <time>2020-08-06T08:20:04.000Z</time>
      </trkpt>
      <trkpt lat="46.03662" lon="4.62784">
        <ele>382.20001220703</ele>
        <time>2020-08-06T08:20:05.000Z</time>
      </trkpt>
      <trkpt lat="46.03662" lon="4.6277">
        <ele>382.60000610352</ele>
        <time>2020-08-06T08:20:08.000Z</time>
      </trkpt>
      <trkpt lat="46.03663" lon="4.62756">
        <ele>382.60000610352</ele>
        <time>2020-08-06T08:20:11.000Z</time>
      </trkpt>
      <trkpt lat="46.03662" lon="4.62747">
        <ele>382.79998779297</ele>
        <time>2020-08-06T08:20:13.000Z</time>
      </trkpt>
      <trkpt lat="46.03662" lon="4.62729">
        <ele>383.39999389648</ele>
        <time>2020-08-06T08:20:17.000Z</time>
      </trkpt>
      <trkpt lat="46.03661" lon="4.6272">
        <ele>384</ele>
        <time>2020-08-06T08:20:19.000Z</time>
      </trkpt>
      <trkpt lat="46.03661" lon="4.62716">
        <ele>384.39999389648</ele>
        <time>2020-08-06T08:20:20.000Z</time>
      </trkpt>
      <trkpt lat="46.03658" lon="4.62695">
        <ele>385.79998779297</ele>
        <time>2020-08-06T08:20:25.000Z</time>
      </trkpt>
      <trkpt lat="46.03658" lon="4.62691">
        <ele>385.60000610352</ele>
        <time>2020-08-06T08:20:26.000Z</time>
      </trkpt>
      <trkpt lat="46.03655" lon="4.62678">
        <ele>385.39999389648</ele>
        <time>2020-08-06T08:20:29.000Z</time>
      </trkpt>
      <trkpt lat="46.0365" lon="4.62661">
        <ele>385.20001220703</ele>
        <time>2020-08-06T08:20:33.000Z</time>
      </trkpt>
      <trkpt lat="46.03649" lon="4.62657">
        <ele>385.20001220703</ele>
        <time>2020-08-06T08:20:34.000Z</time>
      </trkpt>
      <trkpt lat="46.0364" lon="4.62637">
        <ele>385.60000610352</ele>
        <time>2020-08-06T08:20:39.000Z</time>
      </trkpt>
      <trkpt lat="46.03635" lon="4.6263">
        <ele>385.79998779297</ele>
        <time>2020-08-06T08:20:41.000Z</time>
      </trkpt>
      <trkpt lat="46.03626" lon="4.62617">
        <ele>386.20001220703</ele>
        <time>2020-08-06T08:20:45.000Z</time>
      </trkpt>
      <trkpt lat="46.03613" lon="4.62603">
        <ele>386.39999389648</ele>
        <time>2020-08-06T08:20:50.000Z</time>
      </trkpt>
      <trkpt lat="46.0361" lon="4.626">
        <ele>386.60000610352</ele>
        <time>2020-08-06T08:20:51.000Z</time>
      </trkpt>
      <trkpt lat="46.03592" lon="4.62586">
        <ele>387.60000610352</ele>
        <time>2020-08-06T08:20:57.000Z</time>
      </trkpt>
      <trkpt lat="46.03586" lon="4.62582">
        <ele>387.79998779297</ele>
        <time>2020-08-06T08:20:59.000Z</time>
      </trkpt>
      <trkpt lat="46.03559" lon="4.62563">
        <ele>389.79998779297</ele>
        <time>2020-08-06T08:21:08.000Z</time>
      </trkpt>
      <trkpt lat="46.03556" lon="4.62561">
        <ele>390</ele>
        <time>2020-08-06T08:21:09.000Z</time>
      </trkpt>
      <trkpt lat="46.03536" lon="4.62543">
        <ele>391.60000610352</ele>
        <time>2020-08-06T08:21:16.000Z</time>
      </trkpt>
      <trkpt lat="46.03531" lon="4.62538">
        <ele>392</ele>
        <time>2020-08-06T08:21:18.000Z</time>
      </trkpt>
      <trkpt lat="46.03515" lon="4.62524">
        <ele>393</ele>
        <time>2020-08-06T08:21:24.000Z</time>
      </trkpt>
      <trkpt lat="46.03506" lon="4.62517">
        <ele>393.60000610352</ele>
        <time>2020-08-06T08:21:27.000Z</time>
      </trkpt>
      <trkpt lat="46.03494" lon="4.6251">
        <ele>394.60000610352</ele>
        <time>2020-08-06T08:21:31.000Z</time>
      </trkpt>
      <trkpt lat="46.03486" lon="4.62503">
        <ele>395.20001220703</ele>
        <time>2020-08-06T08:21:34.000Z</time>
      </trkpt>
      <trkpt lat="46.0348" lon="4.62498">
        <ele>395.39999389648</ele>
        <time>2020-08-06T08:21:36.000Z</time>
      </trkpt>
      <trkpt lat="46.03471" lon="4.6249">
        <ele>395.79998779297</ele>
        <time>2020-08-06T08:21:39.000Z</time>
      </trkpt>
      <trkpt lat="46.03459" lon="4.6248">
        <ele>396.39999389648</ele>
        <time>2020-08-06T08:21:43.000Z</time>
      </trkpt>
      <trkpt lat="46.03457" lon="4.62477">
        <ele>396.39999389648</ele>
        <time>2020-08-06T08:21:44.000Z</time>
      </trkpt>
      <trkpt lat="46.03448" lon="4.62468">
        <ele>396.60000610352</ele>
        <time>2020-08-06T08:21:47.000Z</time>
      </trkpt>
      <trkpt lat="46.03437" lon="4.62455">
        <ele>396.39999389648</ele>
        <time>2020-08-06T08:21:51.000Z</time>
      </trkpt>
      <trkpt lat="46.03423" lon="4.62432">
        <ele>397.60000610352</ele>
        <time>2020-08-06T08:21:57.000Z</time>
      </trkpt>
      <trkpt lat="46.03407" lon="4.62402">
        <ele>399.60000610352</ele>
        <time>2020-08-06T08:22:05.000Z</time>
      </trkpt>
      <trkpt lat="46.03403" lon="4.62395">
        <ele>400</ele>
        <time>2020-08-06T08:22:07.000Z</time>
      </trkpt>
      <trkpt lat="46.03386" lon="4.6236">
        <ele>402.20001220703</ele>
        <time>2020-08-06T08:22:16.000Z</time>
      </trkpt>
      <trkpt lat="46.03377" lon="4.62331">
        <ele>404.39999389648</ele>
        <time>2020-08-06T08:22:23.000Z</time>
      </trkpt>
      <trkpt lat="46.03376" lon="4.62309">
        <ele>404.79998779297</ele>
        <time>2020-08-06T08:22:28.000Z</time>
      </trkpt>
      <trkpt lat="46.03374" lon="4.6228">
        <ele>404.20001220703</ele>
        <time>2020-08-06T08:22:34.000Z</time>
      </trkpt>
      <trkpt lat="46.03372" lon="4.6227">
        <ele>402.60000610352</ele>
        <time>2020-08-06T08:22:36.000Z</time>
      </trkpt>
      <trkpt lat="46.03365" lon="4.62258">
        <ele>401</ele>
        <time>2020-08-06T08:22:39.000Z</time>
      </trkpt>
      <trkpt lat="46.03347" lon="4.62243">
        <ele>401.20001220703</ele>
        <time>2020-08-06T08:22:45.000Z</time>
      </trkpt>
      <trkpt lat="46.03336" lon="4.62239">
        <ele>402.20001220703</ele>
        <time>2020-08-06T08:22:48.000Z</time>
      </trkpt>
      <trkpt lat="46.03322" lon="4.62237">
        <ele>404.39999389648</ele>
        <time>2020-08-06T08:22:52.000Z</time>
      </trkpt>
      <trkpt lat="46.03315" lon="4.62236">
        <ele>405.39999389648</ele>
        <time>2020-08-06T08:22:54.000Z</time>
      </trkpt>
      <trkpt lat="46.03291" lon="4.62236">
        <ele>408.20001220703</ele>
        <time>2020-08-06T08:23:01.000Z</time>
      </trkpt>
      <trkpt lat="46.03288" lon="4.62237">
        <ele>408.79998779297</ele>
        <time>2020-08-06T08:23:02.000Z</time>
      </trkpt>
      <trkpt lat="46.03265" lon="4.62245">
        <ele>412.39999389648</ele>
        <time>2020-08-06T08:23:09.000Z</time>
      </trkpt>
      <trkpt lat="46.03261" lon="4.62246">
        <ele>412.60000610352</ele>
        <time>2020-08-06T08:23:10.000Z</time>
      </trkpt>
      <trkpt lat="46.03248" lon="4.62249">
        <ele>413.60000610352</ele>
        <time>2020-08-06T08:23:14.000Z</time>
      </trkpt>
      <trkpt lat="46.03234" lon="4.62251">
        <ele>414.60000610352</ele>
        <time>2020-08-06T08:23:18.000Z</time>
      </trkpt>
      <trkpt lat="46.03224" lon="4.62252">
        <ele>415.39999389648</ele>
        <time>2020-08-06T08:23:21.000Z</time>
      </trkpt>
      <trkpt lat="46.0321" lon="4.62253">
        <ele>418.60000610352</ele>
        <time>2020-08-06T08:23:25.000Z</time>
      </trkpt>
      <trkpt lat="46.03203" lon="4.62251">
        <ele>419.60000610352</ele>
        <time>2020-08-06T08:23:27.000Z</time>
      </trkpt>
      <trkpt lat="46.0319" lon="4.62236">
        <ele>419.79998779297</ele>
        <time>2020-08-06T08:23:32.000Z</time>
      </trkpt>
      <trkpt lat="46.03183" lon="4.62218">
        <ele>418</ele>
        <time>2020-08-06T08:23:36.000Z</time>
      </trkpt>
      <trkpt lat="46.03181" lon="4.62203">
        <ele>416</ele>
        <time>2020-08-06T08:23:39.000Z</time>
      </trkpt>
      <trkpt lat="46.03172" lon="4.6217">
        <ele>413.79998779297</ele>
        <time>2020-08-06T08:23:46.000Z</time>
      </trkpt>
      <trkpt lat="46.03161" lon="4.62141">
        <ele>412.79998779297</ele>
        <time>2020-08-06T08:23:53.000Z</time>
      </trkpt>
      <trkpt lat="46.03159" lon="4.62137">
        <ele>412.60000610352</ele>
        <time>2020-08-06T08:23:54.000Z</time>
      </trkpt>
      <trkpt lat="46.03151" lon="4.62122">
        <ele>412.60000610352</ele>
        <time>2020-08-06T08:23:58.000Z</time>
      </trkpt>
      <trkpt lat="46.03144" lon="4.62111">
        <ele>413.60000610352</ele>
        <time>2020-08-06T08:24:01.000Z</time>
      </trkpt>
      <trkpt lat="46.03135" lon="4.62097">
        <ele>416.20001220703</ele>
        <time>2020-08-06T08:24:05.000Z</time>
      </trkpt>
      <trkpt lat="46.03121" lon="4.62076">
        <ele>420.20001220703</ele>
        <time>2020-08-06T08:24:11.000Z</time>
      </trkpt>
      <trkpt lat="46.03106" lon="4.62041">
        <ele>424.60000610352</ele>
        <time>2020-08-06T08:24:19.000Z</time>
      </trkpt>
      <trkpt lat="46.03101" lon="4.62007">
        <ele>425.60000610352</ele>
        <time>2020-08-06T08:24:26.000Z</time>
      </trkpt>
      <trkpt lat="46.03101" lon="4.62002">
        <ele>425.60000610352</ele>
        <time>2020-08-06T08:24:27.000Z</time>
      </trkpt>
      <trkpt lat="46.03105" lon="4.61968">
        <ele>429.20001220703</ele>
        <time>2020-08-06T08:24:34.000Z</time>
      </trkpt>
      <trkpt lat="46.03111" lon="4.61943">
        <ele>430.79998779297</ele>
        <time>2020-08-06T08:24:40.000Z</time>
      </trkpt>
      <trkpt lat="46.03113" lon="4.61934">
        <ele>430.20001220703</ele>
        <time>2020-08-06T08:24:42.000Z</time>
      </trkpt>
      <trkpt lat="46.03115" lon="4.6192">
        <ele>430</ele>
        <time>2020-08-06T08:24:45.000Z</time>
      </trkpt>
      <trkpt lat="46.03118" lon="4.61897">
        <ele>431.39999389648</ele>
        <time>2020-08-06T08:24:50.000Z</time>
      </trkpt>
      <trkpt lat="46.03119" lon="4.61893">
        <ele>431.60000610352</ele>
        <time>2020-08-06T08:24:51.000Z</time>
      </trkpt>
      <trkpt lat="46.03121" lon="4.61875">
        <ele>432.79998779297</ele>
        <time>2020-08-06T08:24:55.000Z</time>
      </trkpt>
      <trkpt lat="46.03123" lon="4.61856">
        <ele>433.60000610352</ele>
        <time>2020-08-06T08:24:59.000Z</time>
      </trkpt>
      <trkpt lat="46.03124" lon="4.61841">
        <ele>434</ele>
        <time>2020-08-06T08:25:02.000Z</time>
      </trkpt>
      <trkpt lat="46.03128" lon="4.61817">
        <ele>434.79998779297</ele>
        <time>2020-08-06T08:25:07.000Z</time>
      </trkpt>
      <trkpt lat="46.0313" lon="4.61798">
        <ele>435.20001220703</ele>
        <time>2020-08-06T08:25:11.000Z</time>
      </trkpt>
      <trkpt lat="46.03132" lon="4.61773">
        <ele>437.20001220703</ele>
        <time>2020-08-06T08:25:16.000Z</time>
      </trkpt>
      <trkpt lat="46.03133" lon="4.61768">
        <ele>437.39999389648</ele>
        <time>2020-08-06T08:25:17.000Z</time>
      </trkpt>
      <trkpt lat="46.03136" lon="4.61744">
        <ele>439.20001220703</ele>
        <time>2020-08-06T08:25:22.000Z</time>
      </trkpt>
      <trkpt lat="46.03137" lon="4.6173">
        <ele>440</ele>
        <time>2020-08-06T08:25:25.000Z</time>
      </trkpt>
      <trkpt lat="46.03138" lon="4.61721">
        <ele>440.79998779297</ele>
        <time>2020-08-06T08:25:27.000Z</time>
      </trkpt>
      <trkpt lat="46.03141" lon="4.61703">
        <ele>442</ele>
        <time>2020-08-06T08:25:31.000Z</time>
      </trkpt>
      <trkpt lat="46.03142" lon="4.61689">
        <ele>443</ele>
        <time>2020-08-06T08:25:34.000Z</time>
      </trkpt>
      <trkpt lat="46.03144" lon="4.61676">
        <ele>443.39999389648</ele>
        <time>2020-08-06T08:25:37.000Z</time>
      </trkpt>
      <trkpt lat="46.03145" lon="4.61671">
        <ele>443.60000610352</ele>
        <time>2020-08-06T08:25:38.000Z</time>
      </trkpt>
      <trkpt lat="46.03147" lon="4.61649">
        <ele>444.60000610352</ele>
        <time>2020-08-06T08:25:43.000Z</time>
      </trkpt>
      <trkpt lat="46.03148" lon="4.61639">
        <ele>445</ele>
        <time>2020-08-06T08:25:45.000Z</time>
      </trkpt>
      <trkpt lat="46.03149" lon="4.61635">
        <ele>445.20001220703</ele>
        <time>2020-08-06T08:25:46.000Z</time>
      </trkpt>
      <trkpt lat="46.03153" lon="4.61604">
        <ele>445.60000610352</ele>
        <time>2020-08-06T08:25:53.000Z</time>
      </trkpt>
      <trkpt lat="46.03155" lon="4.6159">
        <ele>445.79998779297</ele>
        <time>2020-08-06T08:25:56.000Z</time>
      </trkpt>
      <trkpt lat="46.03157" lon="4.61576">
        <ele>446</ele>
        <time>2020-08-06T08:25:59.000Z</time>
      </trkpt>
      <trkpt lat="46.0316" lon="4.6155">
        <ele>446.39999389648</ele>
        <time>2020-08-06T08:26:05.000Z</time>
      </trkpt>
      <trkpt lat="46.0316" lon="4.61546">
        <ele>446.20001220703</ele>
        <time>2020-08-06T08:26:06.000Z</time>
      </trkpt>
      <trkpt lat="46.03162" lon="4.61527">
        <ele>446</ele>
        <time>2020-08-06T08:26:10.000Z</time>
      </trkpt>
      <trkpt lat="46.03162" lon="4.61505">
        <ele>445.79998779297</ele>
        <time>2020-08-06T08:26:15.000Z</time>
      </trkpt>
      <trkpt lat="46.03161" lon="4.61491">
        <ele>446</ele>
        <time>2020-08-06T08:26:18.000Z</time>
      </trkpt>
      <trkpt lat="46.03159" lon="4.61477">
        <ele>446.39999389648</ele>
        <time>2020-08-06T08:26:21.000Z</time>
      </trkpt>
      <trkpt lat="46.03156" lon="4.61464">
        <ele>447</ele>
        <time>2020-08-06T08:26:24.000Z</time>
      </trkpt>
      <trkpt lat="46.03151" lon="4.61439">
        <ele>448.79998779297</ele>
        <time>2020-08-06T08:26:30.000Z</time>
      </trkpt>
      <trkpt lat="46.0315" lon="4.61435">
        <ele>449</ele>
        <time>2020-08-06T08:26:31.000Z</time>
      </trkpt>
      <trkpt lat="46.03148" lon="4.61426">
        <ele>449.60000610352</ele>
        <time>2020-08-06T08:26:33.000Z</time>
      </trkpt>
      <trkpt lat="46.03144" lon="4.61394">
        <ele>451.20001220703</ele>
        <time>2020-08-06T08:26:40.000Z</time>
      </trkpt>
      <trkpt lat="46.03142" lon="4.61381">
        <ele>451.79998779297</ele>
        <time>2020-08-06T08:26:43.000Z</time>
      </trkpt>
      <trkpt lat="46.03141" lon="4.61363">
        <ele>452.79998779297</ele>
        <time>2020-08-06T08:26:47.000Z</time>
      </trkpt>
      <trkpt lat="46.03141" lon="4.61354">
        <ele>453.79998779297</ele>
        <time>2020-08-06T08:26:49.000Z</time>
      </trkpt>
      <trkpt lat="46.03139" lon="4.61337">
        <ele>456</ele>
        <time>2020-08-06T08:26:53.000Z</time>
      </trkpt>
      <trkpt lat="46.03138" lon="4.61324">
        <ele>457.60000610352</ele>
        <time>2020-08-06T08:26:56.000Z</time>
      </trkpt>
      <trkpt lat="46.03138" lon="4.61319">
        <ele>458.20001220703</ele>
        <time>2020-08-06T08:26:57.000Z</time>
      </trkpt>
      <trkpt lat="46.03134" lon="4.61294">
        <ele>461.60000610352</ele>
        <time>2020-08-06T08:27:03.000Z</time>
      </trkpt>
      <trkpt lat="46.03126" lon="4.61271">
        <ele>465.20001220703</ele>
        <time>2020-08-06T08:27:09.000Z</time>
      </trkpt>
      <trkpt lat="46.03122" lon="4.61263">
        <ele>466.39999389648</ele>
        <time>2020-08-06T08:27:11.000Z</time>
      </trkpt>
      <trkpt lat="46.03114" lon="4.6125">
        <ele>469.20001220703</ele>
        <time>2020-08-06T08:27:15.000Z</time>
      </trkpt>
      <trkpt lat="46.03109" lon="4.61239">
        <ele>471.39999389648</ele>
        <time>2020-08-06T08:27:18.000Z</time>
      </trkpt>
      <trkpt lat="46.031" lon="4.61226">
        <ele>474.20001220703</ele>
        <time>2020-08-06T08:27:22.000Z</time>
      </trkpt>
      <trkpt lat="46.03093" lon="4.61212">
        <ele>476.79998779297</ele>
        <time>2020-08-06T08:27:26.000Z</time>
      </trkpt>
      <trkpt lat="46.03072" lon="4.6118">
        <ele>484.39999389648</ele>
        <time>2020-08-06T08:27:36.000Z</time>
      </trkpt>
      <trkpt lat="46.03056" lon="4.61155">
        <ele>489.60000610352</ele>
        <time>2020-08-06T08:27:43.000Z</time>
      </trkpt>
      <trkpt lat="46.03046" lon="4.61138">
        <ele>490</ele>
        <time>2020-08-06T08:27:48.000Z</time>
      </trkpt>
      <trkpt lat="46.03042" lon="4.61131">
        <ele>490.39999389648</ele>
        <time>2020-08-06T08:27:50.000Z</time>
      </trkpt>
      <trkpt lat="46.0303" lon="4.6111">
        <ele>491.39999389648</ele>
        <time>2020-08-06T08:27:56.000Z</time>
      </trkpt>
      <trkpt lat="46.03026" lon="4.61103">
        <ele>491.79998779297</ele>
        <time>2020-08-06T08:27:58.000Z</time>
      </trkpt>
      <trkpt lat="46.0302" lon="4.61093">
        <ele>492.39999389648</ele>
        <time>2020-08-06T08:28:01.000Z</time>
      </trkpt>
      <trkpt lat="46.03009" lon="4.6107">
        <ele>493.60000610352</ele>
        <time>2020-08-06T08:28:07.000Z</time>
      </trkpt>
      <trkpt lat="46.02996" lon="4.61043">
        <ele>495.20001220703</ele>
        <time>2020-08-06T08:28:14.000Z</time>
      </trkpt>
      <trkpt lat="46.02992" lon="4.61036">
        <ele>495.39999389648</ele>
        <time>2020-08-06T08:28:16.000Z</time>
      </trkpt>
      <trkpt lat="46.02985" lon="4.61026">
        <ele>495</ele>
        <time>2020-08-06T08:28:19.000Z</time>
      </trkpt>
      <trkpt lat="46.02974" lon="4.6101">
        <ele>494.60000610352</ele>
        <time>2020-08-06T08:28:24.000Z</time>
      </trkpt>
      <trkpt lat="46.0297" lon="4.61002">
        <ele>494.39999389648</ele>
        <time>2020-08-06T08:28:26.000Z</time>
      </trkpt>
      <trkpt lat="46.02958" lon="4.6098">
        <ele>494.20001220703</ele>
        <time>2020-08-06T08:28:32.000Z</time>
      </trkpt>
      <trkpt lat="46.02946" lon="4.60952">
        <ele>494.20001220703</ele>
        <time>2020-08-06T08:28:39.000Z</time>
      </trkpt>
      <trkpt lat="46.0294" lon="4.60936">
        <ele>495.39999389648</ele>
        <time>2020-08-06T08:28:43.000Z</time>
      </trkpt>
      <trkpt lat="46.02934" lon="4.60914">
        <ele>497.39999389648</ele>
        <time>2020-08-06T08:28:48.000Z</time>
      </trkpt>
      <trkpt lat="46.02928" lon="4.60888">
        <ele>500</ele>
        <time>2020-08-06T08:28:54.000Z</time>
      </trkpt>
      <trkpt lat="46.02926" lon="4.60879">
        <ele>500.79998779297</ele>
        <time>2020-08-06T08:28:56.000Z</time>
      </trkpt>
      <trkpt lat="46.02921" lon="4.60858">
        <ele>503</ele>
        <time>2020-08-06T08:29:01.000Z</time>
      </trkpt>
      <trkpt lat="46.02917" lon="4.60842">
        <ele>504.39999389648</ele>
        <time>2020-08-06T08:29:05.000Z</time>
      </trkpt>
      <trkpt lat="46.02915" lon="4.60838">
        <ele>504.79998779297</ele>
        <time>2020-08-06T08:29:06.000Z</time>
      </trkpt>
      <trkpt lat="46.02903" lon="4.60813">
        <ele>505.39999389648</ele>
        <time>2020-08-06T08:29:13.000Z</time>
      </trkpt>
      <trkpt lat="46.02901" lon="4.6081">
        <ele>505.20001220703</ele>
        <time>2020-08-06T08:29:14.000Z</time>
      </trkpt>
      <trkpt lat="46.02887" lon="4.60784">
        <ele>505.39999389648</ele>
        <time>2020-08-06T08:29:21.000Z</time>
      </trkpt>
      <trkpt lat="46.02884" lon="4.60781">
        <ele>505.39999389648</ele>
        <time>2020-08-06T08:29:22.000Z</time>
      </trkpt>
      <trkpt lat="46.02879" lon="4.6077">
        <ele>505.60000610352</ele>
        <time>2020-08-06T08:29:25.000Z</time>
      </trkpt>
      <trkpt lat="46.02873" lon="4.60759">
        <ele>505.79998779297</ele>
        <time>2020-08-06T08:29:28.000Z</time>
      </trkpt>
      <trkpt lat="46.02869" lon="4.60753">
        <ele>505.79998779297</ele>
        <time>2020-08-06T08:29:30.000Z</time>
      </trkpt>
      <trkpt lat="46.02858" lon="4.60731">
        <ele>506.20001220703</ele>
        <time>2020-08-06T08:29:36.000Z</time>
      </trkpt>
      <trkpt lat="46.02853" lon="4.6072">
        <ele>506.79998779297</ele>
        <time>2020-08-06T08:29:39.000Z</time>
      </trkpt>
      <trkpt lat="46.02852" lon="4.60715">
        <ele>507</ele>
        <time>2020-08-06T08:29:40.000Z</time>
      </trkpt>
      <trkpt lat="46.02843" lon="4.60692">
        <ele>508.60000610352</ele>
        <time>2020-08-06T08:29:46.000Z</time>
      </trkpt>
      <trkpt lat="46.02841" lon="4.60684">
        <ele>509.20001220703</ele>
        <time>2020-08-06T08:29:48.000Z</time>
      </trkpt>
      <trkpt lat="46.02839" lon="4.60675">
        <ele>510.20001220703</ele>
        <time>2020-08-06T08:29:50.000Z</time>
      </trkpt>
      <trkpt lat="46.02832" lon="4.60654">
        <ele>511.79998779297</ele>
        <time>2020-08-06T08:29:55.000Z</time>
      </trkpt>
      <trkpt lat="46.0283" lon="4.60646">
        <ele>512.40002441406</ele>
        <time>2020-08-06T08:29:57.000Z</time>
      </trkpt>
      <trkpt lat="46.02825" lon="4.60624">
        <ele>514.40002441406</ele>
        <time>2020-08-06T08:30:02.000Z</time>
      </trkpt>
      <trkpt lat="46.02821" lon="4.60612">
        <ele>515</ele>
        <time>2020-08-06T08:30:05.000Z</time>
      </trkpt>
      <trkpt lat="46.02821" lon="4.60608">
        <ele>515.20001220703</ele>
        <time>2020-08-06T08:30:06.000Z</time>
      </trkpt>
      <trkpt lat="46.02817" lon="4.60591">
        <ele>515.59997558594</ele>
        <time>2020-08-06T08:30:10.000Z</time>
      </trkpt>
      <trkpt lat="46.02812" lon="4.60569">
        <ele>516</ele>
        <time>2020-08-06T08:30:15.000Z</time>
      </trkpt>
      <trkpt lat="46.02808" lon="4.60545">
        <ele>516.79998779297</ele>
        <time>2020-08-06T08:30:21.000Z</time>
      </trkpt>
      <trkpt lat="46.02806" lon="4.60514">
        <ele>517.20001220703</ele>
        <time>2020-08-06T08:30:28.000Z</time>
      </trkpt>
      <trkpt lat="46.02806" lon="4.6049">
        <ele>517.79998779297</ele>
        <time>2020-08-06T08:30:34.000Z</time>
      </trkpt>
      <trkpt lat="46.02806" lon="4.60481">
        <ele>518.20001220703</ele>
        <time>2020-08-06T08:30:36.000Z</time>
      </trkpt>
      <trkpt lat="46.02808" lon="4.60459">
        <ele>519.40002441406</ele>
        <time>2020-08-06T08:30:41.000Z</time>
      </trkpt>
      <trkpt lat="46.02816" lon="4.60423">
        <ele>520.79998779297</ele>
        <time>2020-08-06T08:30:49.000Z</time>
      </trkpt>
      <trkpt lat="46.02826" lon="4.60391">
        <ele>522.79998779297</ele>
        <time>2020-08-06T08:30:57.000Z</time>
      </trkpt>
      <trkpt lat="46.02829" lon="4.60383">
        <ele>523.59997558594</ele>
        <time>2020-08-06T08:30:59.000Z</time>
      </trkpt>
      <trkpt lat="46.02837" lon="4.60364">
        <ele>526.20001220703</ele>
        <time>2020-08-06T08:31:04.000Z</time>
      </trkpt>
      <trkpt lat="46.02838" lon="4.6036">
        <ele>526.79998779297</ele>
        <time>2020-08-06T08:31:05.000Z</time>
      </trkpt>
      <trkpt lat="46.02847" lon="4.60338">
        <ele>529.79998779297</ele>
        <time>2020-08-06T08:31:11.000Z</time>
      </trkpt>
      <trkpt lat="46.0285" lon="4.60326">
        <ele>530.59997558594</ele>
        <time>2020-08-06T08:31:14.000Z</time>
      </trkpt>
      <trkpt lat="46.02851" lon="4.60318">
        <ele>531.59997558594</ele>
        <time>2020-08-06T08:31:16.000Z</time>
      </trkpt>
      <trkpt lat="46.02852" lon="4.60308">
        <ele>532.20001220703</ele>
        <time>2020-08-06T08:31:18.000Z</time>
      </trkpt>
      <trkpt lat="46.02853" lon="4.60304">
        <ele>532.59997558594</ele>
        <time>2020-08-06T08:31:19.000Z</time>
      </trkpt>
      <trkpt lat="46.02854" lon="4.60295">
        <ele>533.40002441406</ele>
        <time>2020-08-06T08:31:21.000Z</time>
      </trkpt>
      <trkpt lat="46.02854" lon="4.60286">
        <ele>533.79998779297</ele>
        <time>2020-08-06T08:31:23.000Z</time>
      </trkpt>
      <trkpt lat="46.02853" lon="4.6028">
        <ele>534</ele>
        <time>2020-08-06T08:31:24.000Z</time>
      </trkpt>
      <trkpt lat="46.02854" lon="4.60275">
        <ele>534.40002441406</ele>
        <time>2020-08-06T08:31:25.000Z</time>
      </trkpt>
      <trkpt lat="46.02854" lon="4.60266">
        <ele>535.20001220703</ele>
        <time>2020-08-06T08:31:27.000Z</time>
      </trkpt>
      <trkpt lat="46.02853" lon="4.60253">
        <ele>535.79998779297</ele>
        <time>2020-08-06T08:31:30.000Z</time>
      </trkpt>
      <trkpt lat="46.02852" lon="4.60248">
        <ele>536</ele>
        <time>2020-08-06T08:31:31.000Z</time>
      </trkpt>
      <trkpt lat="46.02851" lon="4.60239">
        <ele>536.40002441406</ele>
        <time>2020-08-06T08:31:33.000Z</time>
      </trkpt>
      <trkpt lat="46.0285" lon="4.60229">
        <ele>536.40002441406</ele>
        <time>2020-08-06T08:31:35.000Z</time>
      </trkpt>
      <trkpt lat="46.02846" lon="4.60216">
        <ele>536.20001220703</ele>
        <time>2020-08-06T08:31:38.000Z</time>
      </trkpt>
      <trkpt lat="46.02845" lon="4.60211">
        <ele>536.20001220703</ele>
        <time>2020-08-06T08:31:39.000Z</time>
      </trkpt>
      <trkpt lat="46.02844" lon="4.60202">
        <ele>536.40002441406</ele>
        <time>2020-08-06T08:31:41.000Z</time>
      </trkpt>
      <trkpt lat="46.02843" lon="4.60194">
        <ele>535.79998779297</ele>
        <time>2020-08-06T08:31:43.000Z</time>
      </trkpt>
      <trkpt lat="46.02843" lon="4.60189">
        <ele>535.79998779297</ele>
        <time>2020-08-06T08:31:44.000Z</time>
      </trkpt>
      <trkpt lat="46.02843" lon="4.6018">
        <ele>535.59997558594</ele>
        <time>2020-08-06T08:31:46.000Z</time>
      </trkpt>
      <trkpt lat="46.02842" lon="4.60166">
        <ele>535</ele>
        <time>2020-08-06T08:31:49.000Z</time>
      </trkpt>
      <trkpt lat="46.02842" lon="4.60157">
        <ele>534.79998779297</ele>
        <time>2020-08-06T08:31:51.000Z</time>
      </trkpt>
      <trkpt lat="46.02844" lon="4.6014">
        <ele>534.79998779297</ele>
        <time>2020-08-06T08:31:55.000Z</time>
      </trkpt>
      <trkpt lat="46.02846" lon="4.60132">
        <ele>535</ele>
        <time>2020-08-06T08:31:57.000Z</time>
      </trkpt>
      <trkpt lat="46.02847" lon="4.60123">
        <ele>534.79998779297</ele>
        <time>2020-08-06T08:31:59.000Z</time>
      </trkpt>
      <trkpt lat="46.02852" lon="4.60103">
        <ele>535.40002441406</ele>
        <time>2020-08-06T08:32:04.000Z</time>
      </trkpt>
      <trkpt lat="46.02857" lon="4.60078">
        <ele>536</ele>
        <time>2020-08-06T08:32:10.000Z</time>
      </trkpt>
      <trkpt lat="46.0286" lon="4.60065">
        <ele>535.59997558594</ele>
        <time>2020-08-06T08:32:13.000Z</time>
      </trkpt>
      <trkpt lat="46.02861" lon="4.60061">
        <ele>535.59997558594</ele>
        <time>2020-08-06T08:32:14.000Z</time>
      </trkpt>
      <trkpt lat="46.02867" lon="4.6004">
        <ele>535.40002441406</ele>
        <time>2020-08-06T08:32:19.000Z</time>
      </trkpt>
      <trkpt lat="46.02868" lon="4.60036">
        <ele>535.40002441406</ele>
        <time>2020-08-06T08:32:20.000Z</time>
      </trkpt>
      <trkpt lat="46.02878" lon="4.60012">
        <ele>535.20001220703</ele>
        <time>2020-08-06T08:32:26.000Z</time>
      </trkpt>
      <trkpt lat="46.02883" lon="4.6">
        <ele>535.59997558594</ele>
        <time>2020-08-06T08:32:29.000Z</time>
      </trkpt>
      <trkpt lat="46.02889" lon="4.59989">
        <ele>536</ele>
        <time>2020-08-06T08:32:32.000Z</time>
      </trkpt>
      <trkpt lat="46.02899" lon="4.59971">
        <ele>537</ele>
        <time>2020-08-06T08:32:37.000Z</time>
      </trkpt>
      <trkpt lat="46.02917" lon="4.59946">
        <ele>539.20001220703</ele>
        <time>2020-08-06T08:32:45.000Z</time>
      </trkpt>
      <trkpt lat="46.02927" lon="4.59924">
        <ele>539.79998779297</ele>
        <time>2020-08-06T08:32:51.000Z</time>
      </trkpt>
      <trkpt lat="46.02938" lon="4.59895">
        <ele>539.79998779297</ele>
        <time>2020-08-06T08:32:58.000Z</time>
      </trkpt>
      <trkpt lat="46.02953" lon="4.59865">
        <ele>540.40002441406</ele>
        <time>2020-08-06T08:33:06.000Z</time>
      </trkpt>
      <trkpt lat="46.0297" lon="4.59837">
        <ele>540.79998779297</ele>
        <time>2020-08-06T08:33:14.000Z</time>
      </trkpt>
      <trkpt lat="46.02972" lon="4.59834">
        <ele>540.79998779297</ele>
        <time>2020-08-06T08:33:15.000Z</time>
      </trkpt>
      <trkpt lat="46.02985" lon="4.59817">
        <ele>541</ele>
        <time>2020-08-06T08:33:21.000Z</time>
      </trkpt>
      <trkpt lat="46.03008" lon="4.59793">
        <ele>544</ele>
        <time>2020-08-06T08:33:30.000Z</time>
      </trkpt>
      <trkpt lat="46.03029" lon="4.59775">
        <ele>549.59997558594</ele>
        <time>2020-08-06T08:33:38.000Z</time>
      </trkpt>
      <trkpt lat="46.03047" lon="4.59759">
        <ele>555.20001220703</ele>
        <time>2020-08-06T08:33:45.000Z</time>
      </trkpt>
      <trkpt lat="46.03049" lon="4.59756">
        <ele>555.79998779297</ele>
        <time>2020-08-06T08:33:46.000Z</time>
      </trkpt>
      <trkpt lat="46.03054" lon="4.59751">
        <ele>557.20001220703</ele>
        <time>2020-08-06T08:33:48.000Z</time>
      </trkpt>
      <trkpt lat="46.03068" lon="4.59734">
        <ele>561.40002441406</ele>
        <time>2020-08-06T08:33:54.000Z</time>
      </trkpt>
      <trkpt lat="46.03072" lon="4.59728">
        <ele>562.59997558594</ele>
        <time>2020-08-06T08:33:56.000Z</time>
      </trkpt>
      <trkpt lat="46.03077" lon="4.59714">
        <ele>564.40002441406</ele>
        <time>2020-08-06T08:34:00.000Z</time>
      </trkpt>
      <trkpt lat="46.03079" lon="4.5971">
        <ele>565</ele>
        <time>2020-08-06T08:34:01.000Z</time>
      </trkpt>
      <trkpt lat="46.03079" lon="4.59692">
        <ele>566</ele>
        <time>2020-08-06T08:34:05.000Z</time>
      </trkpt>
      <trkpt lat="46.03079" lon="4.59688">
        <ele>566.20001220703</ele>
        <time>2020-08-06T08:34:06.000Z</time>
      </trkpt>
      <trkpt lat="46.03078" lon="4.59683">
        <ele>566</ele>
        <time>2020-08-06T08:34:07.000Z</time>
      </trkpt>
      <trkpt lat="46.03075" lon="4.59675">
        <ele>565.79998779297</ele>
        <time>2020-08-06T08:34:09.000Z</time>
      </trkpt>
      <trkpt lat="46.03072" lon="4.59667">
        <ele>565.20001220703</ele>
        <time>2020-08-06T08:34:11.000Z</time>
      </trkpt>
      <trkpt lat="46.0307" lon="4.59663">
        <ele>564.79998779297</ele>
        <time>2020-08-06T08:34:12.000Z</time>
      </trkpt>
      <trkpt lat="46.03063" lon="4.59652">
        <ele>563.20001220703</ele>
        <time>2020-08-06T08:34:15.000Z</time>
      </trkpt>
      <trkpt lat="46.03053" lon="4.59639">
        <ele>560.79998779297</ele>
        <time>2020-08-06T08:34:19.000Z</time>
      </trkpt>
      <trkpt lat="46.03046" lon="4.5963">
        <ele>559</ele>
        <time>2020-08-06T08:34:22.000Z</time>
      </trkpt>
      <trkpt lat="46.0304" lon="4.59615">
        <ele>557.79998779297</ele>
        <time>2020-08-06T08:34:26.000Z</time>
      </trkpt>
      <trkpt lat="46.03038" lon="4.59597">
        <ele>557.40002441406</ele>
        <time>2020-08-06T08:34:30.000Z</time>
      </trkpt>
      <trkpt lat="46.03038" lon="4.59588">
        <ele>557.79998779297</ele>
        <time>2020-08-06T08:34:32.000Z</time>
      </trkpt>
      <trkpt lat="46.03039" lon="4.59578">
        <ele>558.40002441406</ele>
        <time>2020-08-06T08:34:34.000Z</time>
      </trkpt>
      <trkpt lat="46.03042" lon="4.59557">
        <ele>560.40002441406</ele>
        <time>2020-08-06T08:34:39.000Z</time>
      </trkpt>
      <trkpt lat="46.03043" lon="4.59548">
        <ele>561.20001220703</ele>
        <time>2020-08-06T08:34:41.000Z</time>
      </trkpt>
      <trkpt lat="46.0305" lon="4.59508">
        <ele>564.20001220703</ele>
        <time>2020-08-06T08:34:50.000Z</time>
      </trkpt>
      <trkpt lat="46.03053" lon="4.5949">
        <ele>566.20001220703</ele>
        <time>2020-08-06T08:34:54.000Z</time>
      </trkpt>
      <trkpt lat="46.03057" lon="4.59468">
        <ele>568.79998779297</ele>
        <time>2020-08-06T08:34:59.000Z</time>
      </trkpt>
      <trkpt lat="46.03061" lon="4.5945">
        <ele>571</ele>
        <time>2020-08-06T08:35:03.000Z</time>
      </trkpt>
      <trkpt lat="46.03064" lon="4.59433">
        <ele>571.79998779297</ele>
        <time>2020-08-06T08:35:07.000Z</time>
      </trkpt>
      <trkpt lat="46.03068" lon="4.59413">
        <ele>573.40002441406</ele>
        <time>2020-08-06T08:35:12.000Z</time>
      </trkpt>
      <trkpt lat="46.0307" lon="4.5939">
        <ele>574.40002441406</ele>
        <time>2020-08-06T08:35:17.000Z</time>
      </trkpt>
      <trkpt lat="46.03076" lon="4.59363">
        <ele>575.20001220703</ele>
        <time>2020-08-06T08:35:24.000Z</time>
      </trkpt>
      <trkpt lat="46.0308" lon="4.59343">
        <ele>575.59997558594</ele>
        <time>2020-08-06T08:35:29.000Z</time>
      </trkpt>
      <trkpt lat="46.03089" lon="4.59319">
        <ele>577.40002441406</ele>
        <time>2020-08-06T08:35:35.000Z</time>
      </trkpt>
      <trkpt lat="46.03092" lon="4.5931">
        <ele>577.79998779297</ele>
        <time>2020-08-06T08:35:37.000Z</time>
      </trkpt>
      <trkpt lat="46.03099" lon="4.59288">
        <ele>579</ele>
        <time>2020-08-06T08:35:42.000Z</time>
      </trkpt>
      <trkpt lat="46.03109" lon="4.59261">
        <ele>584</ele>
        <time>2020-08-06T08:35:49.000Z</time>
      </trkpt>
      <trkpt lat="46.03122" lon="4.59233">
        <ele>589</ele>
        <time>2020-08-06T08:35:57.000Z</time>
      </trkpt>
      <trkpt lat="46.03123" lon="4.59224">
        <ele>589.79998779297</ele>
        <time>2020-08-06T08:35:59.000Z</time>
      </trkpt>
      <trkpt lat="46.03125" lon="4.59211">
        <ele>590.59997558594</ele>
        <time>2020-08-06T08:36:02.000Z</time>
      </trkpt>
      <trkpt lat="46.03125" lon="4.59206">
        <ele>590.79998779297</ele>
        <time>2020-08-06T08:36:03.000Z</time>
      </trkpt>
      <trkpt lat="46.03125" lon="4.59196">
        <ele>591.79998779297</ele>
        <time>2020-08-06T08:36:05.000Z</time>
      </trkpt>
      <trkpt lat="46.03125" lon="4.59182">
        <ele>593.40002441406</ele>
        <time>2020-08-06T08:36:08.000Z</time>
      </trkpt>
      <trkpt lat="46.03125" lon="4.59177">
        <ele>593.40002441406</ele>
        <time>2020-08-06T08:36:09.000Z</time>
      </trkpt>
      <trkpt lat="46.03126" lon="4.59173">
        <ele>593.40002441406</ele>
        <time>2020-08-06T08:36:10.000Z</time>
      </trkpt>
      <trkpt lat="46.03126" lon="4.59157">
        <ele>593.40002441406</ele>
        <time>2020-08-06T08:36:14.000Z</time>
      </trkpt>
      <trkpt lat="46.03127" lon="4.59148">
        <ele>593.59997558594</ele>
        <time>2020-08-06T08:36:16.000Z</time>
      </trkpt>
      <trkpt lat="46.0313" lon="4.5914">
        <ele>594</ele>
        <time>2020-08-06T08:36:18.000Z</time>
      </trkpt>
      <trkpt lat="46.03133" lon="4.59122">
        <ele>594.59997558594</ele>
        <time>2020-08-06T08:36:22.000Z</time>
      </trkpt>
      <trkpt lat="46.03135" lon="4.59089">
        <ele>597.59997558594</ele>
        <time>2020-08-06T08:36:29.000Z</time>
      </trkpt>
      <trkpt lat="46.03134" lon="4.59071">
        <ele>599.20001220703</ele>
        <time>2020-08-06T08:36:33.000Z</time>
      </trkpt>
      <trkpt lat="46.03133" lon="4.59062">
        <ele>600</ele>
        <time>2020-08-06T08:36:35.000Z</time>
      </trkpt>
      <trkpt lat="46.03129" lon="4.59049">
        <ele>600.59997558594</ele>
        <time>2020-08-06T08:36:38.000Z</time>
      </trkpt>
      <trkpt lat="46.03125" lon="4.59041">
        <ele>600.79998779297</ele>
        <time>2020-08-06T08:36:40.000Z</time>
      </trkpt>
      <trkpt lat="46.03122" lon="4.59038">
        <ele>600.59997558594</ele>
        <time>2020-08-06T08:36:41.000Z</time>
      </trkpt>
      <trkpt lat="46.03117" lon="4.59034">
        <ele>600.20001220703</ele>
        <time>2020-08-06T08:36:43.000Z</time>
      </trkpt>
      <trkpt lat="46.03114" lon="4.59033">
        <ele>600</ele>
        <time>2020-08-06T08:36:44.000Z</time>
      </trkpt>
      <trkpt lat="46.03102" lon="4.59031">
        <ele>598.59997558594</ele>
        <time>2020-08-06T08:36:48.000Z</time>
      </trkpt>
      <trkpt lat="46.03098" lon="4.59033">
        <ele>597.40002441406</ele>
        <time>2020-08-06T08:36:50.000Z</time>
      </trkpt>
      <trkpt lat="46.03088" lon="4.59042">
        <ele>594.79998779297</ele>
        <time>2020-08-06T08:36:54.000Z</time>
      </trkpt>
      <trkpt lat="46.03083" lon="4.59048">
        <ele>593.40002441406</ele>
        <time>2020-08-06T08:36:56.000Z</time>
      </trkpt>
      <trkpt lat="46.0308" lon="4.5905">
        <ele>592.79998779297</ele>
        <time>2020-08-06T08:36:57.000Z</time>
      </trkpt>
      <trkpt lat="46.03072" lon="4.59058">
        <ele>590.79998779297</ele>
        <time>2020-08-06T08:37:00.000Z</time>
      </trkpt>
      <trkpt lat="46.03063" lon="4.59066">
        <ele>588.59997558594</ele>
        <time>2020-08-06T08:37:03.000Z</time>
      </trkpt>
      <trkpt lat="46.03058" lon="4.59072">
        <ele>587.59997558594</ele>
        <time>2020-08-06T08:37:05.000Z</time>
      </trkpt>
      <trkpt lat="46.03049" lon="4.59078">
        <ele>588.20001220703</ele>
        <time>2020-08-06T08:37:08.000Z</time>
      </trkpt>
      <trkpt lat="46.03042" lon="4.59081">
        <ele>589</ele>
        <time>2020-08-06T08:37:10.000Z</time>
      </trkpt>
      <trkpt lat="46.03039" lon="4.59082">
        <ele>589.20001220703</ele>
        <time>2020-08-06T08:37:11.000Z</time>
      </trkpt>
      <trkpt lat="46.03029" lon="4.59083">
        <ele>590.59997558594</ele>
        <time>2020-08-06T08:37:14.000Z</time>
      </trkpt>
      <trkpt lat="46.03023" lon="4.59081">
        <ele>591.59997558594</ele>
        <time>2020-08-06T08:37:16.000Z</time>
      </trkpt>
      <trkpt lat="46.03018" lon="4.59079">
        <ele>592.40002441406</ele>
        <time>2020-08-06T08:37:18.000Z</time>
      </trkpt>
      <trkpt lat="46.0301" lon="4.59074">
        <ele>593.59997558594</ele>
        <time>2020-08-06T08:37:21.000Z</time>
      </trkpt>
      <trkpt lat="46.03004" lon="4.59071">
        <ele>594.40002441406</ele>
        <time>2020-08-06T08:37:23.000Z</time>
      </trkpt>
      <trkpt lat="46.03001" lon="4.59069">
        <ele>594.79998779297</ele>
        <time>2020-08-06T08:37:24.000Z</time>
      </trkpt>
      <trkpt lat="46.02993" lon="4.59064">
        <ele>596.20001220703</ele>
        <time>2020-08-06T08:37:27.000Z</time>
      </trkpt>
      <trkpt lat="46.02985" lon="4.59057">
        <ele>597.59997558594</ele>
        <time>2020-08-06T08:37:30.000Z</time>
      </trkpt>
      <trkpt lat="46.02976" lon="4.59052">
        <ele>598.79998779297</ele>
        <time>2020-08-06T08:37:33.000Z</time>
      </trkpt>
      <trkpt lat="46.0297" lon="4.59049">
        <ele>599.79998779297</ele>
        <time>2020-08-06T08:37:35.000Z</time>
      </trkpt>
      <trkpt lat="46.02964" lon="4.59047">
        <ele>600.79998779297</ele>
        <time>2020-08-06T08:37:37.000Z</time>
      </trkpt>
      <trkpt lat="46.02961" lon="4.59046">
        <ele>601.40002441406</ele>
        <time>2020-08-06T08:37:38.000Z</time>
      </trkpt>
      <trkpt lat="46.02958" lon="4.59045">
        <ele>601.79998779297</ele>
        <time>2020-08-06T08:37:39.000Z</time>
      </trkpt>
      <trkpt lat="46.02948" lon="4.59043">
        <ele>602.79998779297</ele>
        <time>2020-08-06T08:37:42.000Z</time>
      </trkpt>
      <trkpt lat="46.02941" lon="4.59043">
        <ele>603</ele>
        <time>2020-08-06T08:37:44.000Z</time>
      </trkpt>
      <trkpt lat="46.02938" lon="4.59044">
        <ele>603.20001220703</ele>
        <time>2020-08-06T08:37:45.000Z</time>
      </trkpt>
      <trkpt lat="46.02932" lon="4.59043">
        <ele>603.59997558594</ele>
        <time>2020-08-06T08:37:47.000Z</time>
      </trkpt>
      <trkpt lat="46.02925" lon="4.59043">
        <ele>604</ele>
        <time>2020-08-06T08:37:49.000Z</time>
      </trkpt>
      <trkpt lat="46.02916" lon="4.59042">
        <ele>604.79998779297</ele>
        <time>2020-08-06T08:37:52.000Z</time>
      </trkpt>
      <trkpt lat="46.02914" lon="4.59042">
        <ele>605</ele>
        <time>2020-08-06T08:37:53.000Z</time>
      </trkpt>
      <trkpt lat="46.02911" lon="4.59041">
        <ele>605.40002441406</ele>
        <time>2020-08-06T08:37:54.000Z</time>
      </trkpt>
      <trkpt lat="46.02906" lon="4.59041">
        <ele>605.79998779297</ele>
        <time>2020-08-06T08:37:56.000Z</time>
      </trkpt>
      <trkpt lat="46.029" lon="4.59042">
        <ele>605.79998779297</ele>
        <time>2020-08-06T08:37:58.000Z</time>
      </trkpt>
      <trkpt lat="46.02897" lon="4.59043">
        <ele>606.20001220703</ele>
        <time>2020-08-06T08:37:59.000Z</time>
      </trkpt>
      <trkpt lat="46.02891" lon="4.59045">
        <ele>606.40002441406</ele>
        <time>2020-08-06T08:38:01.000Z</time>
      </trkpt>
      <trkpt lat="46.02884" lon="4.59055">
        <ele>605.79998779297</ele>
        <time>2020-08-06T08:38:04.000Z</time>
      </trkpt>
      <trkpt lat="46.02882" lon="4.59063">
        <ele>604.79998779297</ele>
        <time>2020-08-06T08:38:06.000Z</time>
      </trkpt>
      <trkpt lat="46.0288" lon="4.59076">
        <ele>602.79998779297</ele>
        <time>2020-08-06T08:38:09.000Z</time>
      </trkpt>
      <trkpt lat="46.02884" lon="4.59097">
        <ele>598.59997558594</ele>
        <time>2020-08-06T08:38:14.000Z</time>
      </trkpt>
      <trkpt lat="46.02886" lon="4.5911">
        <ele>596.20001220703</ele>
        <time>2020-08-06T08:38:17.000Z</time>
      </trkpt>
      <trkpt lat="46.02888" lon="4.59124">
        <ele>594.79998779297</ele>
        <time>2020-08-06T08:38:21.000Z</time>
      </trkpt>
      <trkpt lat="46.02892" lon="4.59151">
        <ele>592.20001220703</ele>
        <time>2020-08-06T08:38:28.000Z</time>
      </trkpt>
      <trkpt lat="46.02886" lon="4.5917">
        <ele>592.79998779297</ele>
        <time>2020-08-06T08:38:34.000Z</time>
      </trkpt>
      <trkpt lat="46.02882" lon="4.59178">
        <ele>593.59997558594</ele>
        <time>2020-08-06T08:38:37.000Z</time>
      </trkpt>
      <trkpt lat="46.02877" lon="4.59184">
        <ele>594.59997558594</ele>
        <time>2020-08-06T08:38:39.000Z</time>
      </trkpt>
      <trkpt lat="46.02874" lon="4.59186">
        <ele>595.20001220703</ele>
        <time>2020-08-06T08:38:40.000Z</time>
      </trkpt>
      <trkpt lat="46.02869" lon="4.5919">
        <ele>596</ele>
        <time>2020-08-06T08:38:42.000Z</time>
      </trkpt>
      <trkpt lat="46.02858" lon="4.59192">
        <ele>598.20001220703</ele>
        <time>2020-08-06T08:38:46.000Z</time>
      </trkpt>
      <trkpt lat="46.02842" lon="4.59191">
        <ele>601.79998779297</ele>
        <time>2020-08-06T08:38:51.000Z</time>
      </trkpt>
      <trkpt lat="46.0284" lon="4.59192">
        <ele>602.40002441406</ele>
        <time>2020-08-06T08:38:52.000Z</time>
      </trkpt>
      <trkpt lat="46.02836" lon="4.59192">
        <ele>603</ele>
        <time>2020-08-06T08:38:53.000Z</time>
      </trkpt>
      <trkpt lat="46.02823" lon="4.5919">
        <ele>606.40002441406</ele>
        <time>2020-08-06T08:38:58.000Z</time>
      </trkpt>
      <trkpt lat="46.02818" lon="4.5919">
        <ele>607.59997558594</ele>
        <time>2020-08-06T08:39:00.000Z</time>
      </trkpt>
      <trkpt lat="46.02813" lon="4.59188">
        <ele>609</ele>
        <time>2020-08-06T08:39:02.000Z</time>
      </trkpt>
      <trkpt lat="46.02808" lon="4.59187">
        <ele>610</ele>
        <time>2020-08-06T08:39:04.000Z</time>
      </trkpt>
      <trkpt lat="46.02802" lon="4.59186">
        <ele>610.79998779297</ele>
        <time>2020-08-06T08:39:06.000Z</time>
      </trkpt>
      <trkpt lat="46.02793" lon="4.59182">
        <ele>612.40002441406</ele>
        <time>2020-08-06T08:39:09.000Z</time>
      </trkpt>
      <trkpt lat="46.0279" lon="4.59181">
        <ele>613</ele>
        <time>2020-08-06T08:39:10.000Z</time>
      </trkpt>
      <trkpt lat="46.02784" lon="4.59179">
        <ele>613.79998779297</ele>
        <time>2020-08-06T08:39:12.000Z</time>
      </trkpt>
      <trkpt lat="46.02777" lon="4.59177">
        <ele>614.40002441406</ele>
        <time>2020-08-06T08:39:14.000Z</time>
      </trkpt>
      <trkpt lat="46.0277" lon="4.59176">
        <ele>614.79998779297</ele>
        <time>2020-08-06T08:39:16.000Z</time>
      </trkpt>
      <trkpt lat="46.02766" lon="4.59176">
        <ele>615</ele>
        <time>2020-08-06T08:39:17.000Z</time>
      </trkpt>
      <trkpt lat="46.0276" lon="4.59176">
        <ele>615.40002441406</ele>
        <time>2020-08-06T08:39:19.000Z</time>
      </trkpt>
      <trkpt lat="46.02747" lon="4.59178">
        <ele>615.40002441406</ele>
        <time>2020-08-06T08:39:22.000Z</time>
      </trkpt>
      <trkpt lat="46.0273" lon="4.59184">
        <ele>614.79998779297</ele>
        <time>2020-08-06T08:39:27.000Z</time>
      </trkpt>
      <trkpt lat="46.02724" lon="4.59188">
        <ele>614.20001220703</ele>
        <time>2020-08-06T08:39:29.000Z</time>
      </trkpt>
      <trkpt lat="46.02722" lon="4.5919">
        <ele>614</ele>
        <time>2020-08-06T08:39:30.000Z</time>
      </trkpt>
      <trkpt lat="46.02717" lon="4.59196">
        <ele>613.40002441406</ele>
        <time>2020-08-06T08:39:32.000Z</time>
      </trkpt>
      <trkpt lat="46.02712" lon="4.59202">
        <ele>613.20001220703</ele>
        <time>2020-08-06T08:39:34.000Z</time>
      </trkpt>
      <trkpt lat="46.02709" lon="4.59204">
        <ele>613.20001220703</ele>
        <time>2020-08-06T08:39:35.000Z</time>
      </trkpt>
      <trkpt lat="46.02706" lon="4.59207">
        <ele>613</ele>
        <time>2020-08-06T08:39:36.000Z</time>
      </trkpt>
      <trkpt lat="46.02702" lon="4.59214">
        <ele>612.79998779297</ele>
        <time>2020-08-06T08:39:38.000Z</time>
      </trkpt>
      <trkpt lat="46.02698" lon="4.59221">
        <ele>612.40002441406</ele>
        <time>2020-08-06T08:39:40.000Z</time>
      </trkpt>
      <trkpt lat="46.02694" lon="4.59228">
        <ele>611.79998779297</ele>
        <time>2020-08-06T08:39:42.000Z</time>
      </trkpt>
      <trkpt lat="46.02689" lon="4.59238">
        <ele>611</ele>
        <time>2020-08-06T08:39:45.000Z</time>
      </trkpt>
      <trkpt lat="46.02687" lon="4.59246">
        <ele>610</ele>
        <time>2020-08-06T08:39:47.000Z</time>
      </trkpt>
      <trkpt lat="46.02685" lon="4.59254">
        <ele>610</ele>
        <time>2020-08-06T08:39:49.000Z</time>
      </trkpt>
      <trkpt lat="46.02683" lon="4.59273">
        <ele>609.20001220703</ele>
        <time>2020-08-06T08:39:53.000Z</time>
      </trkpt>
      <trkpt lat="46.02681" lon="4.59291">
        <ele>607.79998779297</ele>
        <time>2020-08-06T08:39:57.000Z</time>
      </trkpt>
      <trkpt lat="46.02679" lon="4.59304">
        <ele>606.40002441406</ele>
        <time>2020-08-06T08:40:00.000Z</time>
      </trkpt>
      <trkpt lat="46.02678" lon="4.59317">
        <ele>604.59997558594</ele>
        <time>2020-08-06T08:40:03.000Z</time>
      </trkpt>
      <trkpt lat="46.0267" lon="4.59345">
        <ele>605.20001220703</ele>
        <time>2020-08-06T08:40:09.000Z</time>
      </trkpt>
      <trkpt lat="46.02655" lon="4.5937">
        <ele>608.59997558594</ele>
        <time>2020-08-06T08:40:16.000Z</time>
      </trkpt>
      <trkpt lat="46.02649" lon="4.59375">
        <ele>610.40002441406</ele>
        <time>2020-08-06T08:40:18.000Z</time>
      </trkpt>
      <trkpt lat="46.02643" lon="4.59379">
        <ele>611.59997558594</ele>
        <time>2020-08-06T08:40:20.000Z</time>
      </trkpt>
      <trkpt lat="46.02635" lon="4.5938">
        <ele>612.20001220703</ele>
        <time>2020-08-06T08:40:22.000Z</time>
      </trkpt>
      <trkpt lat="46.02629" lon="4.59382">
        <ele>612.79998779297</ele>
        <time>2020-08-06T08:40:24.000Z</time>
      </trkpt>
      <trkpt lat="46.02618" lon="4.5938">
        <ele>614.20001220703</ele>
        <time>2020-08-06T08:40:27.000Z</time>
      </trkpt>
      <trkpt lat="46.02615" lon="4.5938">
        <ele>614.59997558594</ele>
        <time>2020-08-06T08:40:28.000Z</time>
      </trkpt>
      <trkpt lat="46.02602" lon="4.59373">
        <ele>616.79998779297</ele>
        <time>2020-08-06T08:40:32.000Z</time>
      </trkpt>
      <trkpt lat="46.02599" lon="4.59371">
        <ele>617.40002441406</ele>
        <time>2020-08-06T08:40:33.000Z</time>
      </trkpt>
      <trkpt lat="46.02585" lon="4.59359">
        <ele>621</ele>
        <time>2020-08-06T08:40:38.000Z</time>
      </trkpt>
      <trkpt lat="46.02582" lon="4.59356">
        <ele>621.59997558594</ele>
        <time>2020-08-06T08:40:39.000Z</time>
      </trkpt>
      <trkpt lat="46.02565" lon="4.59336">
        <ele>627</ele>
        <time>2020-08-06T08:40:46.000Z</time>
      </trkpt>
      <trkpt lat="46.02551" lon="4.59317">
        <ele>629.59997558594</ele>
        <time>2020-08-06T08:40:52.000Z</time>
      </trkpt>
      <trkpt lat="46.02549" lon="4.59314">
        <ele>629.79998779297</ele>
        <time>2020-08-06T08:40:53.000Z</time>
      </trkpt>
      <trkpt lat="46.02532" lon="4.59288">
        <ele>631.20001220703</ele>
        <time>2020-08-06T08:41:01.000Z</time>
      </trkpt>
      <trkpt lat="46.02527" lon="4.59277">
        <ele>632.79998779297</ele>
        <time>2020-08-06T08:41:04.000Z</time>
      </trkpt>
      <trkpt lat="46.02518" lon="4.59262">
        <ele>635</ele>
        <time>2020-08-06T08:41:08.000Z</time>
      </trkpt>
      <trkpt lat="46.02508" lon="4.59244">
        <ele>637.79998779297</ele>
        <time>2020-08-06T08:41:13.000Z</time>
      </trkpt>
      <trkpt lat="46.025" lon="4.59229">
        <ele>640.40002441406</ele>
        <time>2020-08-06T08:41:17.000Z</time>
      </trkpt>
      <trkpt lat="46.0249" lon="4.59211">
        <ele>642.79998779297</ele>
        <time>2020-08-06T08:41:22.000Z</time>
      </trkpt>
      <trkpt lat="46.02484" lon="4.592">
        <ele>644.20001220703</ele>
        <time>2020-08-06T08:41:25.000Z</time>
      </trkpt>
      <trkpt lat="46.02476" lon="4.59184">
        <ele>647</ele>
        <time>2020-08-06T08:41:29.000Z</time>
      </trkpt>
      <trkpt lat="46.0247" lon="4.59173">
        <ele>648.79998779297</ele>
        <time>2020-08-06T08:41:32.000Z</time>
      </trkpt>
      <trkpt lat="46.0246" lon="4.59154">
        <ele>651.20001220703</ele>
        <time>2020-08-06T08:41:37.000Z</time>
      </trkpt>
      <trkpt lat="46.02445" lon="4.59129">
        <ele>654.59997558594</ele>
        <time>2020-08-06T08:41:44.000Z</time>
      </trkpt>
      <trkpt lat="46.02431" lon="4.59108">
        <ele>657</ele>
        <time>2020-08-06T08:41:50.000Z</time>
      </trkpt>
      <trkpt lat="46.02429" lon="4.59106">
        <ele>657.20001220703</ele>
        <time>2020-08-06T08:41:51.000Z</time>
      </trkpt>
      <trkpt lat="46.02422" lon="4.59098">
        <ele>657.59997558594</ele>
        <time>2020-08-06T08:41:54.000Z</time>
      </trkpt>
      <trkpt lat="46.0241" lon="4.59089">
        <ele>658</ele>
        <time>2020-08-06T08:41:58.000Z</time>
      </trkpt>
      <trkpt lat="46.02395" lon="4.5908">
        <ele>657.59997558594</ele>
        <time>2020-08-06T08:42:03.000Z</time>
      </trkpt>
      <trkpt lat="46.02389" lon="4.59078">
        <ele>657.59997558594</ele>
        <time>2020-08-06T08:42:05.000Z</time>
      </trkpt>
      <trkpt lat="46.02383" lon="4.59075">
        <ele>657.79998779297</ele>
        <time>2020-08-06T08:42:07.000Z</time>
      </trkpt>
      <trkpt lat="46.02367" lon="4.59071">
        <ele>658</ele>
        <time>2020-08-06T08:42:12.000Z</time>
      </trkpt>
      <trkpt lat="46.02351" lon="4.59071">
        <ele>657.40002441406</ele>
        <time>2020-08-06T08:42:16.000Z</time>
      </trkpt>
      <trkpt lat="46.02344" lon="4.59069">
        <ele>657.40002441406</ele>
        <time>2020-08-06T08:42:18.000Z</time>
      </trkpt>
      <trkpt lat="46.0233" lon="4.59067">
        <ele>656.79998779297</ele>
        <time>2020-08-06T08:42:22.000Z</time>
      </trkpt>
      <trkpt lat="46.0232" lon="4.59066">
        <ele>656</ele>
        <time>2020-08-06T08:42:25.000Z</time>
      </trkpt>
      <trkpt lat="46.02307" lon="4.59069">
        <ele>654.20001220703</ele>
        <time>2020-08-06T08:42:29.000Z</time>
      </trkpt>
      <trkpt lat="46.02299" lon="4.59073">
        <ele>652</ele>
        <time>2020-08-06T08:42:32.000Z</time>
      </trkpt>
      <trkpt lat="46.02283" lon="4.59088">
        <ele>645.79998779297</ele>
        <time>2020-08-06T08:42:38.000Z</time>
      </trkpt>
      <trkpt lat="46.02278" lon="4.59094">
        <ele>644.79998779297</ele>
        <time>2020-08-06T08:42:40.000Z</time>
      </trkpt>
      <trkpt lat="46.02264" lon="4.59118">
        <ele>645.40002441406</ele>
        <time>2020-08-06T08:42:47.000Z</time>
      </trkpt>
      <trkpt lat="46.02258" lon="4.59128">
        <ele>644</ele>
        <time>2020-08-06T08:42:50.000Z</time>
      </trkpt>
      <trkpt lat="46.02247" lon="4.59136">
        <ele>643.79998779297</ele>
        <time>2020-08-06T08:42:54.000Z</time>
      </trkpt>
      <trkpt lat="46.02228" lon="4.59136">
        <ele>646</ele>
        <time>2020-08-06T08:43:00.000Z</time>
      </trkpt>
      <trkpt lat="46.02209" lon="4.59124">
        <ele>648</ele>
        <time>2020-08-06T08:43:07.000Z</time>
      </trkpt>
      <trkpt lat="46.02196" lon="4.59115">
        <ele>648.20001220703</ele>
        <time>2020-08-06T08:43:12.000Z</time>
      </trkpt>
      <trkpt lat="46.02191" lon="4.59112">
        <ele>647.59997558594</ele>
        <time>2020-08-06T08:43:14.000Z</time>
      </trkpt>
      <trkpt lat="46.02181" lon="4.59098">
        <ele>645.40002441406</ele>
        <time>2020-08-06T08:43:20.000Z</time>
      </trkpt>
      <trkpt lat="46.0218" lon="4.59095">
        <ele>645</ele>
        <time>2020-08-06T08:43:21.000Z</time>
      </trkpt>
      <trkpt lat="46.02175" lon="4.5908">
        <ele>643</ele>
        <time>2020-08-06T08:43:26.000Z</time>
      </trkpt>
      <trkpt lat="46.02178" lon="4.59058">
        <ele>642.59997558594</ele>
        <time>2020-08-06T08:43:31.000Z</time>
      </trkpt>
      <trkpt lat="46.02187" lon="4.59033">
        <ele>645.40002441406</ele>
        <time>2020-08-06T08:43:36.000Z</time>
      </trkpt>
    </trkseg>
  </trk>
</gpx>